sensor_id;sensor_type;location;lat;lon;timestamp;temperature;humidity
3778;DHT22;1904;50.076;8.660;2022-07-12T00:01:14;14.90;1.00
3778;DHT22;1904;50.076;8.660;2022-07-12T00:03:44;14.90;1.00
3778;DHT22;1904;50.076;8.660;2022-07-12T00:06:10;14.90;1.00
3778;DHT22;1904;50.076;8.660;2022-07-12T00:08:36;14.80;1.00
3778;DHT22;1904;50.076;8.660;2022-07-12T00:11:14;14.80;1.00
3778;DHT22;1904;50.076;8.660;2022-07-12T00:13:44;14.70;1.00
3778;DHT22;1904;50.076;8.660;2022-07-12T00:16:38;14.70;1.00
3778;DHT22;1904;50.076;8.660;2022-07-12T00:19:03;14.60;1.00
3778;DHT22;1904;50.076;8.660;2022-07-12T00:21:29;14.60;1.00
3778;DHT22;1904;50.076;8.660;2022-07-12T00:24:08;14.60;1.00
3778;DHT22;1904;50.076;8.660;2022-07-12T00:26:35;14.50;1.00
3778;DHT22;1904;50.076;8.660;2022-07-12T00:29:00;14.50;1.00
3778;DHT22;1904;50.076;8.660;2022-07-12T00:31:32;14.50;1.00
3778;DHT22;1904;50.076;8.660;2022-07-12T00:33:58;14.50;1.00
3778;DHT22;1904;50.076;8.660;2022-07-12T00:36:26;14.50;1.00
3778;DHT22;1904;50.076;8.660;2022-07-12T00:38:56;14.40;1.00
3778;DHT22;1904;50.076;8.660;2022-07-12T00:41:22;14.50;1.00
3778;DHT22;1904;50.076;8.660;2022-07-12T00:43:48;14.30;1.00
3778;DHT22;1904;50.076;8.660;2022-07-12T00:46:16;14.40;1.00
3778;DHT22;1904;50.076;8.660;2022-07-12T00:48:43;14.30;1.00
3778;DHT22;1904;50.076;8.660;2022-07-12T00:51:10;14.20;1.00
3778;DHT22;1904;50.076;8.660;2022-07-12T00:53:36;14.20;1.00
3778;DHT22;1904;50.076;8.660;2022-07-12T00:56:02;14.20;1.00
3778;DHT22;1904;50.076;8.660;2022-07-12T00:58:39;14.20;1.00
3778;DHT22;1904;50.076;8.660;2022-07-12T01:01:09;14.20;1.00
3778;DHT22;1904;50.076;8.660;2022-07-12T01:03:35;14.10;1.00
3778;DHT22;1904;50.076;8.660;2022-07-12T01:06:02;14.20;1.00
3778;DHT22;1904;50.076;8.660;2022-07-12T01:08:27;14.10;1.00
3778;DHT22;1904;50.076;8.660;2022-07-12T01:10:55;14.10;1.00
3778;DHT22;1904;50.076;8.660;2022-07-12T01:13:26;14.10;1.00
3778;DHT22;1904;50.076;8.660;2022-07-12T01:15:52;14.00;1.00
3778;DHT22;1904;50.076;8.660;2022-07-12T01:18:38;14.00;1.00
3778;DHT22;1904;50.076;8.660;2022-07-12T01:21:18;14.00;1.00
3778;DHT22;1904;50.076;8.660;2022-07-12T01:23:56;13.90;1.00
3778;DHT22;1904;50.076;8.660;2022-07-12T01:26:27;13.90;1.00
3778;DHT22;1904;50.076;8.660;2022-07-12T01:29:02;13.80;1.00
3778;DHT22;1904;50.076;8.660;2022-07-12T01:31:34;13.80;1.00
3778;DHT22;1904;50.076;8.660;2022-07-12T01:34:02;13.80;1.00
3778;DHT22;1904;50.076;8.660;2022-07-12T01:36:29;13.80;1.00
3778;DHT22;1904;50.076;8.660;2022-07-12T01:38:56;13.80;1.00
3778;DHT22;1904;50.076;8.660;2022-07-12T01:41:23;13.80;1.00
3778;DHT22;1904;50.076;8.660;2022-07-12T01:43:50;13.80;1.00
3778;DHT22;1904;50.076;8.660;2022-07-12T01:46:20;13.70;1.00
3778;DHT22;1904;50.076;8.660;2022-07-12T01:48:46;13.70;1.00
3778;DHT22;1904;50.076;8.660;2022-07-12T01:51:11;13.70;1.00
3778;DHT22;1904;50.076;8.660;2022-07-12T01:53:37;13.70;1.00
3778;DHT22;1904;50.076;8.660;2022-07-12T01:56:06;13.60;1.00
3778;DHT22;1904;50.076;8.660;2022-07-12T01:58:32;13.60;1.00
3778;DHT22;1904;50.076;8.660;2022-07-12T02:01:10;13.60;1.00
3778;DHT22;1904;50.076;8.660;2022-07-12T02:03:50;13.60;1.00
3778;DHT22;1904;50.076;8.660;2022-07-12T02:06:50;13.50;1.00
3778;DHT22;1904;50.076;8.660;2022-07-12T02:09:32;13.50;1.00
3778;DHT22;1904;50.076;8.660;2022-07-12T02:11:58;13.40;1.00
3778;DHT22;1904;50.076;8.660;2022-07-12T02:14:26;13.40;1.00
3778;DHT22;1904;50.076;8.660;2022-07-12T02:20:38;13.30;1.00
3778;DHT22;1904;50.076;8.660;2022-07-12T02:23:08;13.30;1.00
3778;DHT22;1904;50.076;8.660;2022-07-12T02:25:44;13.30;1.00
3778;DHT22;1904;50.076;8.660;2022-07-12T02:28:38;13.20;1.00
3778;DHT22;1904;50.076;8.660;2022-07-12T02:34:25;13.20;1.00
3778;DHT22;1904;50.076;8.660;2022-07-12T02:36:51;13.20;1.00
3778;DHT22;1904;50.076;8.660;2022-07-12T02:39:26;13.20;1.00
3778;DHT22;1904;50.076;8.660;2022-07-12T02:41:52;13.20;1.00
3778;DHT22;1904;50.076;8.660;2022-07-12T02:44:18;13.20;1.00
3778;DHT22;1904;50.076;8.660;2022-07-12T02:46:44;13.10;1.00
3778;DHT22;1904;50.076;8.660;2022-07-12T02:49:14;13.20;1.00
3778;DHT22;1904;50.076;8.660;2022-07-12T02:51:44;13.10;1.00
3778;DHT22;1904;50.076;8.660;2022-07-12T02:54:14;13.00;1.00
3778;DHT22;1904;50.076;8.660;2022-07-12T02:56:40;13.00;1.00
3778;DHT22;1904;50.076;8.660;2022-07-12T02:59:08;13.00;1.00
3778;DHT22;1904;50.076;8.660;2022-07-12T03:01:34;13.00;1.00
3778;DHT22;1904;50.076;8.660;2022-07-12T03:04:14;13.00;1.00
3778;DHT22;1904;50.076;8.660;2022-07-12T03:06:44;12.90;1.00
3778;DHT22;1904;50.076;8.660;2022-07-12T03:09:32;12.90;1.00
3778;DHT22;1904;50.076;8.660;2022-07-12T03:11:57;12.90;1.00
3778;DHT22;1904;50.076;8.660;2022-07-12T03:14:23;12.90;1.00
3778;DHT22;1904;50.076;8.660;2022-07-12T03:17:08;12.90;1.00
3778;DHT22;1904;50.076;8.660;2022-07-12T03:19:44;12.90;1.00
3778;DHT22;1904;50.076;8.660;2022-07-12T03:22:20;12.90;1.00
3778;DHT22;1904;50.076;8.660;2022-07-12T03:27:57;12.80;1.00
3778;DHT22;1904;50.076;8.660;2022-07-12T03:30:26;12.80;1.00
3778;DHT22;1904;50.076;8.660;2022-07-12T03:33:08;12.80;1.00
3778;DHT22;1904;50.076;8.660;2022-07-12T03:35:34;12.80;1.00
3778;DHT22;1904;50.076;8.660;2022-07-12T03:38:20;12.70;1.00
3778;DHT22;1904;50.076;8.660;2022-07-12T03:40:56;12.70;1.00
3778;DHT22;1904;50.076;8.660;2022-07-12T03:46:43;12.70;1.00
3778;DHT22;1904;50.076;8.660;2022-07-12T03:49:15;12.70;1.00
3778;DHT22;1904;50.076;8.660;2022-07-12T03:51:50;12.70;1.00
3778;DHT22;1904;50.076;8.660;2022-07-12T03:54:20;12.70;1.00
3778;DHT22;1904;50.076;8.660;2022-07-12T03:56:46;12.60;1.00
3778;DHT22;1904;50.076;8.660;2022-07-12T03:59:38;12.80;1.00
3778;DHT22;1904;50.076;8.660;2022-07-12T04:02:04;12.70;1.00
3778;DHT22;1904;50.076;8.660;2022-07-12T04:04:56;12.80;1.00
3778;DHT22;1904;50.076;8.660;2022-07-12T04:07:50;12.70;1.00
3778;DHT22;1904;50.076;8.660;2022-07-12T04:10:26;12.80;1.00
3778;DHT22;1904;50.076;8.660;2022-07-12T04:12:52;12.70;1.00
3778;DHT22;1904;50.076;8.660;2022-07-12T04:15:20;12.70;1.00
3778;DHT22;1904;50.076;8.660;2022-07-12T04:17:50;12.90;1.00
3778;DHT22;1904;50.076;8.660;2022-07-12T04:20:26;12.70;1.00
3778;DHT22;1904;50.076;8.660;2022-07-12T04:23:08;12.90;1.00
3778;DHT22;1904;50.076;8.660;2022-07-12T04:26:02;12.80;1.00
3778;DHT22;1904;50.076;8.660;2022-07-12T04:28:27;12.90;1.00
3778;DHT22;1904;50.076;8.660;2022-07-12T04:30:56;12.90;1.00
3778;DHT22;1904;50.076;8.660;2022-07-12T04:36:34;13.00;1.00
3778;DHT22;1904;50.076;8.660;2022-07-12T04:39:03;13.10;1.00
3778;DHT22;1904;50.076;8.660;2022-07-12T04:41:33;13.20;1.00
3778;DHT22;1904;50.076;8.660;2022-07-12T04:44:03;13.20;1.00
3778;DHT22;1904;50.076;8.660;2022-07-12T04:46:29;13.20;1.00
3778;DHT22;1904;50.076;8.660;2022-07-12T04:48:55;13.20;1.00
3778;DHT22;1904;50.076;8.660;2022-07-12T04:51:21;13.30;1.00
3778;DHT22;1904;50.076;8.660;2022-07-12T04:53:47;13.40;1.00
3778;DHT22;1904;50.076;8.660;2022-07-12T04:56:26;13.50;1.00
3778;DHT22;1904;50.076;8.660;2022-07-12T04:58:56;13.60;1.00
3778;DHT22;1904;50.076;8.660;2022-07-12T05:01:44;13.60;1.00
3778;DHT22;1904;50.076;8.660;2022-07-12T05:04:26;13.70;1.00
3778;DHT22;1904;50.076;8.660;2022-07-12T05:07:08;13.80;1.00
3778;DHT22;1904;50.076;8.660;2022-07-12T05:09:38;13.90;1.00
3778;DHT22;1904;50.076;8.660;2022-07-12T05:12:04;14.00;1.00
3778;DHT22;1904;50.076;8.660;2022-07-12T05:14:30;14.10;1.00
3778;DHT22;1904;50.076;8.660;2022-07-12T05:17:20;14.20;1.00
3778;DHT22;1904;50.076;8.660;2022-07-12T05:19:56;14.40;1.00
3778;DHT22;1904;50.076;8.660;2022-07-12T05:22:32;14.50;1.00
3778;DHT22;1904;50.076;8.660;2022-07-12T05:25:08;14.60;1.00
3778;DHT22;1904;50.076;8.660;2022-07-12T05:27:50;14.70;1.00
3778;DHT22;1904;50.076;8.660;2022-07-12T05:30:32;14.90;1.00
3778;DHT22;1904;50.076;8.660;2022-07-12T05:33:02;15.00;1.00
3778;DHT22;1904;50.076;8.660;2022-07-12T05:42:44;15.50;1.00
3778;DHT22;1904;50.076;8.660;2022-07-12T05:51:54;16.10;1.00
3778;DHT22;1904;50.076;8.660;2022-07-12T05:54:50;16.20;1.00
3778;DHT22;1904;50.076;8.660;2022-07-12T05:57:44;16.40;1.00
3778;DHT22;1904;50.076;8.660;2022-07-12T06:03:32;16.70;1.00
3778;DHT22;1904;50.076;8.660;2022-07-12T06:05:59;16.90;1.00
3778;DHT22;1904;50.076;8.660;2022-07-12T06:08:25;17.10;1.00
3778;DHT22;1904;50.076;8.660;2022-07-12T06:11:02;17.30;1.00
3778;DHT22;1904;50.076;8.660;2022-07-12T06:13:28;17.50;1.00
3778;DHT22;1904;50.076;8.660;2022-07-12T06:15:55;17.60;1.00
3778;DHT22;1904;50.076;8.660;2022-07-12T06:18:35;17.80;1.00
3778;DHT22;1904;50.076;8.660;2022-07-12T06:21:08;18.10;1.00
3778;DHT22;1904;50.076;8.660;2022-07-12T06:23:44;18.30;1.00
3778;DHT22;1904;50.076;8.660;2022-07-12T06:26:14;18.60;1.00
3778;DHT22;1904;50.076;8.660;2022-07-12T06:28:40;18.70;1.00
3778;DHT22;1904;50.076;8.660;2022-07-12T06:31:06;18.90;1.00
3778;DHT22;1904;50.076;8.660;2022-07-12T06:33:32;19.00;1.00
3778;DHT22;1904;50.076;8.660;2022-07-12T06:39:50;19.40;1.00
3778;DHT22;1904;50.076;8.660;2022-07-12T06:42:38;19.60;1.00
3778;DHT22;1904;50.076;8.660;2022-07-12T06:45:14;19.80;1.00
3778;DHT22;1904;50.076;8.660;2022-07-12T06:47:40;19.90;1.00
3778;DHT22;1904;50.076;8.660;2022-07-12T06:50:08;20.00;1.00
3778;DHT22;1904;50.076;8.660;2022-07-12T06:52:56;20.10;1.00
3778;DHT22;1904;50.076;8.660;2022-07-12T06:55:44;20.30;1.00
3778;DHT22;1904;50.076;8.660;2022-07-12T06:58:44;20.50;1.00
3778;DHT22;1904;50.076;8.660;2022-07-12T07:01:09;20.60;1.00
3778;DHT22;1904;50.076;8.660;2022-07-12T07:04:08;20.80;1.00
3778;DHT22;1904;50.076;8.660;2022-07-12T07:06:38;21.00;1.00
3778;DHT22;1904;50.076;8.660;2022-07-12T07:09:04;21.10;1.00
3778;DHT22;1904;50.076;8.660;2022-07-12T07:11:34;21.20;1.00
3778;DHT22;1904;50.076;8.660;2022-07-12T07:14:00;21.30;1.00
3778;DHT22;1904;50.076;8.660;2022-07-12T07:16:26;21.40;1.00
3778;DHT22;1904;50.076;8.660;2022-07-12T07:18:52;21.60;1.00
3778;DHT22;1904;50.076;8.660;2022-07-12T07:21:17;21.70;1.00
3778;DHT22;1904;50.076;8.660;2022-07-12T07:23:51;21.80;1.00
3778;DHT22;1904;50.076;8.660;2022-07-12T07:26:21;21.90;1.00
3778;DHT22;1904;50.076;8.660;2022-07-12T07:28:50;22.00;1.00
3778;DHT22;1904;50.076;8.660;2022-07-12T07:31:38;22.20;1.00
3778;DHT22;1904;50.076;8.660;2022-07-12T07:34:05;22.30;1.00
3778;DHT22;1904;50.076;8.660;2022-07-12T07:36:31;22.40;1.00
3778;DHT22;1904;50.076;8.660;2022-07-12T07:38:58;22.50;1.00
3778;DHT22;1904;50.076;8.660;2022-07-12T07:41:32;22.70;1.00
3778;DHT22;1904;50.076;8.660;2022-07-12T07:44:02;22.80;1.00
3778;DHT22;1904;50.076;8.660;2022-07-12T07:46:28;22.80;1.00
3778;DHT22;1904;50.076;8.660;2022-07-12T07:48:54;22.90;1.00
3778;DHT22;1904;50.076;8.660;2022-07-12T07:51:19;23.00;1.00
3778;DHT22;1904;50.076;8.660;2022-07-12T07:53:45;23.10;1.00
3778;DHT22;1904;50.076;8.660;2022-07-12T07:56:11;23.30;1.00
3778;DHT22;1904;50.076;8.660;2022-07-12T07:58:38;23.30;1.00
3778;DHT22;1904;50.076;8.660;2022-07-12T08:01:04;23.40;1.00
3778;DHT22;1904;50.076;8.660;2022-07-12T08:03:30;23.40;1.00
3778;DHT22;1904;50.076;8.660;2022-07-12T08:05:55;23.40;1.00
3778;DHT22;1904;50.076;8.660;2022-07-12T08:08:23;23.50;1.00
3778;DHT22;1904;50.076;8.660;2022-07-12T08:10:50;23.50;1.00
3778;DHT22;1904;50.076;8.660;2022-07-12T08:13:16;23.60;1.00
3778;DHT22;1904;50.076;8.660;2022-07-12T08:15:41;23.70;1.00
3778;DHT22;1904;50.076;8.660;2022-07-12T08:18:07;23.80;1.00
3778;DHT22;1904;50.076;8.660;2022-07-12T08:20:33;23.90;1.00
3778;DHT22;1904;50.076;8.660;2022-07-12T08:22:59;23.90;1.00
3778;DHT22;1904;50.076;8.660;2022-07-12T08:25:24;24.10;1.00
3778;DHT22;1904;50.076;8.660;2022-07-12T08:27:50;24.20;1.00
3778;DHT22;1904;50.076;8.660;2022-07-12T08:30:16;24.10;1.00
3778;DHT22;1904;50.076;8.660;2022-07-12T08:32:45;24.00;1.00
3778;DHT22;1904;50.076;8.660;2022-07-12T08:35:10;24.00;1.00
3778;DHT22;1904;50.076;8.660;2022-07-12T08:37:36;23.90;1.00
3778;DHT22;1904;50.076;8.660;2022-07-12T08:40:03;23.80;1.00
3778;DHT22;1904;50.076;8.660;2022-07-12T08:42:31;23.90;1.00
3778;DHT22;1904;50.076;8.660;2022-07-12T08:44:57;24.00;1.00
3778;DHT22;1904;50.076;8.660;2022-07-12T08:47:24;24.20;1.00
3778;DHT22;1904;50.076;8.660;2022-07-12T08:50:09;24.40;1.00
3778;DHT22;1904;50.076;8.660;2022-07-12T08:52:42;24.80;1.00
3778;DHT22;1904;50.076;8.660;2022-07-12T08:55:26;25.20;1.00
3778;DHT22;1904;50.076;8.660;2022-07-12T08:57:55;25.70;1.00
3778;DHT22;1904;50.076;8.660;2022-07-12T09:00:22;26.10;1.00
3778;DHT22;1904;50.076;8.660;2022-07-12T09:02:52;26.40;1.00
3778;DHT22;1904;50.076;8.660;2022-07-12T09:05:26;26.70;1.00
3778;DHT22;1904;50.076;8.660;2022-07-12T09:08:04;26.80;1.00
3778;DHT22;1904;50.076;8.660;2022-07-12T09:10:30;26.90;1.00
3778;DHT22;1904;50.076;8.660;2022-07-12T09:12:56;27.10;1.00
3778;DHT22;1904;50.076;8.660;2022-07-12T09:15:23;27.10;1.00
3778;DHT22;1904;50.076;8.660;2022-07-12T09:20:35;26.90;1.00
3778;DHT22;1904;50.076;8.660;2022-07-12T09:23:08;27.00;1.00
3778;DHT22;1904;50.076;8.660;2022-07-12T09:25:36;26.90;1.00
3778;DHT22;1904;50.076;8.660;2022-07-12T09:28:08;27.00;1.00
3778;DHT22;1904;50.076;8.660;2022-07-12T09:30:35;27.10;1.00
3778;DHT22;1904;50.076;8.660;2022-07-12T09:33:08;27.00;1.00
3778;DHT22;1904;50.076;8.660;2022-07-12T09:38:50;26.50;1.00
3778;DHT22;1904;50.076;8.660;2022-07-12T09:41:19;26.30;1.00
3778;DHT22;1904;50.076;8.660;2022-07-12T09:43:45;26.30;1.00
3778;DHT22;1904;50.076;8.660;2022-07-12T09:46:16;26.10;1.00
3778;DHT22;1904;50.076;8.660;2022-07-12T09:48:42;26.10;1.00
3778;DHT22;1904;50.076;8.660;2022-07-12T09:51:10;26.10;1.00
3778;DHT22;1904;50.076;8.660;2022-07-12T09:53:44;26.20;1.00
3778;DHT22;1904;50.076;8.660;2022-07-12T09:56:12;26.30;1.00
3778;DHT22;1904;50.076;8.660;2022-07-12T09:58:47;26.50;1.00
3778;DHT22;1904;50.076;8.660;2022-07-12T10:01:16;26.70;1.00
3778;DHT22;1904;50.076;8.660;2022-07-12T10:03:45;26.90;1.00
3778;DHT22;1904;50.076;8.660;2022-07-12T10:06:30;26.90;1.00
3778;DHT22;1904;50.076;8.660;2022-07-12T10:08:57;27.00;1.00
3778;DHT22;1904;50.076;8.660;2022-07-12T10:11:32;27.10;1.00
3778;DHT22;1904;50.076;8.660;2022-07-12T10:13:59;27.20;1.00
3778;DHT22;1904;50.076;8.660;2022-07-12T10:16:44;27.10;1.00
3778;DHT22;1904;50.076;8.660;2022-07-12T10:19:24;27.10;1.00
3778;DHT22;1904;50.076;8.660;2022-07-12T10:22:04;27.20;1.00
3778;DHT22;1904;50.076;8.660;2022-07-12T10:24:46;27.10;1.00
3778;DHT22;1904;50.076;8.660;2022-07-12T10:30:45;27.00;1.00
3778;DHT22;1904;50.076;8.660;2022-07-12T10:33:26;27.00;1.00
3778;DHT22;1904;50.076;8.660;2022-07-12T10:36:06;27.10;1.00
3778;DHT22;1904;50.076;8.660;2022-07-12T10:38:33;27.20;1.00
3778;DHT22;1904;50.076;8.660;2022-07-12T10:41:17;27.40;1.00
3778;DHT22;1904;50.076;8.660;2022-07-12T10:43:44;27.30;1.00
3778;DHT22;1904;50.076;8.660;2022-07-12T10:46:28;27.40;1.00
3778;DHT22;1904;50.076;8.660;2022-07-12T10:49:28;27.30;1.00
3778;DHT22;1904;50.076;8.660;2022-07-12T10:54:39;27.20;1.00
3778;DHT22;1904;50.076;8.660;2022-07-12T10:57:05;27.30;1.00
3778;DHT22;1904;50.076;8.660;2022-07-12T10:59:35;27.30;1.00
3778;DHT22;1904;50.076;8.660;2022-07-12T11:02:01;27.50;1.00
3778;DHT22;1904;50.076;8.660;2022-07-12T11:04:27;27.50;1.00
3778;DHT22;1904;50.076;8.660;2022-07-12T11:06:54;27.60;1.00
3778;DHT22;1904;50.076;8.660;2022-07-12T11:09:23;27.80;1.00
3778;DHT22;1904;50.076;8.660;2022-07-12T11:11:51;27.90;1.00
3778;DHT22;1904;50.076;8.660;2022-07-12T11:14:25;28.10;1.00
3778;DHT22;1904;50.076;8.660;2022-07-12T11:16:52;28.10;1.00
3778;DHT22;1904;50.076;8.660;2022-07-12T11:19:22;28.10;1.00
3778;DHT22;1904;50.076;8.660;2022-07-12T11:21:50;28.10;1.00
3778;DHT22;1904;50.076;8.660;2022-07-12T11:24:25;28.10;1.00
3778;DHT22;1904;50.076;8.660;2022-07-12T11:26:52;28.00;1.00
3778;DHT22;1904;50.076;8.660;2022-07-12T11:29:18;28.10;1.00
3778;DHT22;1904;50.076;8.660;2022-07-12T11:31:44;28.20;1.00
3778;DHT22;1904;50.076;8.660;2022-07-12T11:34:22;28.30;1.00
3778;DHT22;1904;50.076;8.660;2022-07-12T11:36:51;28.40;1.00
3778;DHT22;1904;50.076;8.660;2022-07-12T11:39:33;28.30;1.00
3778;DHT22;1904;50.076;8.660;2022-07-12T11:41:59;28.40;1.00
3778;DHT22;1904;50.076;8.660;2022-07-12T11:44:44;28.40;1.00
3778;DHT22;1904;50.076;8.660;2022-07-12T11:47:10;28.20;1.00
3778;DHT22;1904;50.076;8.660;2022-07-12T11:49:38;28.10;1.00
3778;DHT22;1904;50.076;8.660;2022-07-12T11:52:08;28.30;1.00
3778;DHT22;1904;50.076;8.660;2022-07-12T11:54:36;28.50;1.00
3778;DHT22;1904;50.076;8.660;2022-07-12T11:57:09;28.80;1.00
3778;DHT22;1904;50.076;8.660;2022-07-12T11:59:35;29.00;1.00
3778;DHT22;1904;50.076;8.660;2022-07-12T12:02:05;29.20;1.00
3778;DHT22;1904;50.076;8.660;2022-07-12T12:04:31;29.40;1.00
3778;DHT22;1904;50.076;8.660;2022-07-12T12:06:57;29.50;1.00
3778;DHT22;1904;50.076;8.660;2022-07-12T12:09:22;29.40;1.00
3778;DHT22;1904;50.076;8.660;2022-07-12T12:11:48;29.40;1.00
3778;DHT22;1904;50.076;8.660;2022-07-12T12:14:13;29.40;1.00
3778;DHT22;1904;50.076;8.660;2022-07-12T12:16:39;29.50;1.00
3778;DHT22;1904;50.076;8.660;2022-07-12T12:19:10;29.60;1.00
3778;DHT22;1904;50.076;8.660;2022-07-12T12:21:36;29.60;1.00
3778;DHT22;1904;50.076;8.660;2022-07-12T12:24:11;29.60;1.00
3778;DHT22;1904;50.076;8.660;2022-07-12T12:26:37;29.90;1.00
3778;DHT22;1904;50.076;8.660;2022-07-12T12:29:03;29.80;1.00
3778;DHT22;1904;50.076;8.660;2022-07-12T12:31:28;29.80;1.00
3778;DHT22;1904;50.076;8.660;2022-07-12T12:33:55;29.90;1.00
3778;DHT22;1904;50.076;8.660;2022-07-12T12:36:28;29.70;1.00
3778;DHT22;1904;50.076;8.660;2022-07-12T12:38:56;29.70;1.00
3778;DHT22;1904;50.076;8.660;2022-07-12T12:41:23;29.70;1.00
3778;DHT22;1904;50.076;8.660;2022-07-12T12:44:02;29.60;1.00
3778;DHT22;1904;50.076;8.660;2022-07-12T12:46:46;29.80;1.00
3778;DHT22;1904;50.076;8.660;2022-07-12T12:49:15;30.00;1.00
3778;DHT22;1904;50.076;8.660;2022-07-12T12:51:57;30.10;1.00
3778;DHT22;1904;50.076;8.660;2022-07-12T12:54:35;30.10;1.00
3778;DHT22;1904;50.076;8.660;2022-07-12T12:57:04;30.10;1.00
3778;DHT22;1904;50.076;8.660;2022-07-12T12:59:30;30.20;1.00
3778;DHT22;1904;50.076;8.660;2022-07-12T13:01:55;30.40;1.00
3778;DHT22;1904;50.076;8.660;2022-07-12T13:04:21;30.50;1.00
3778;DHT22;1904;50.076;8.660;2022-07-12T13:06:47;30.60;1.00
3778;DHT22;1904;50.076;8.660;2022-07-12T13:09:12;30.80;1.00
3778;DHT22;1904;50.076;8.660;2022-07-12T13:11:38;30.90;1.00
3778;DHT22;1904;50.076;8.660;2022-07-12T13:14:04;31.00;1.00
3778;DHT22;1904;50.076;8.660;2022-07-12T13:16:30;31.10;1.00
3778;DHT22;1904;50.076;8.660;2022-07-12T13:18:56;31.20;1.00
3778;DHT22;1904;50.076;8.660;2022-07-12T13:21:21;30.90;1.00
3778;DHT22;1904;50.076;8.660;2022-07-12T13:23:50;31.10;1.00
3778;DHT22;1904;50.076;8.660;2022-07-12T13:26:16;31.20;1.00
3778;DHT22;1904;50.076;8.660;2022-07-12T13:28:42;31.30;1.00
3778;DHT22;1904;50.076;8.660;2022-07-12T13:31:08;31.40;1.00
3778;DHT22;1904;50.076;8.660;2022-07-12T13:33:34;31.40;1.00
3778;DHT22;1904;50.076;8.660;2022-07-12T13:36:00;31.30;1.00
3778;DHT22;1904;50.076;8.660;2022-07-12T13:38:26;31.30;1.00
3778;DHT22;1904;50.076;8.660;2022-07-12T13:40:51;31.50;1.00
3778;DHT22;1904;50.076;8.660;2022-07-12T13:43:20;31.60;1.00
3778;DHT22;1904;50.076;8.660;2022-07-12T13:45:46;31.70;1.00
3778;DHT22;1904;50.076;8.660;2022-07-12T13:48:14;31.80;1.00
3778;DHT22;1904;50.076;8.660;2022-07-12T13:50:40;31.90;1.00
3778;DHT22;1904;50.076;8.660;2022-07-12T13:53:15;32.00;1.00
3778;DHT22;1904;50.076;8.660;2022-07-12T13:55:46;32.00;1.00
3778;DHT22;1904;50.076;8.660;2022-07-12T13:58:12;32.00;1.00
3778;DHT22;1904;50.076;8.660;2022-07-12T14:00:41;32.00;1.00
3778;DHT22;1904;50.076;8.660;2022-07-12T14:03:07;32.10;1.00
3778;DHT22;1904;50.076;8.660;2022-07-12T14:05:34;32.20;1.00
3778;DHT22;1904;50.076;8.660;2022-07-12T14:08:00;32.30;1.00
3778;DHT22;1904;50.076;8.660;2022-07-12T14:10:26;32.20;1.00
3778;DHT22;1904;50.076;8.660;2022-07-12T14:12:52;32.10;1.00
3778;DHT22;1904;50.076;8.660;2022-07-12T14:15:18;32.20;1.00
3778;DHT22;1904;50.076;8.660;2022-07-12T14:18:04;31.90;1.00
3778;DHT22;1904;50.076;8.660;2022-07-12T14:20:31;32.10;1.00
3778;DHT22;1904;50.076;8.660;2022-07-12T14:22:57;32.20;1.00
3778;DHT22;1904;50.076;8.660;2022-07-12T14:25:23;32.30;1.00
3778;DHT22;1904;50.076;8.660;2022-07-12T14:27:48;32.40;1.00
3778;DHT22;1904;50.076;8.660;2022-07-12T14:30:14;32.40;1.00
3778;DHT22;1904;50.076;8.660;2022-07-12T14:32:44;32.60;1.00
3778;DHT22;1904;50.076;8.660;2022-07-12T14:35:10;32.70;1.00
3778;DHT22;1904;50.076;8.660;2022-07-12T14:37:36;32.80;1.00
3778;DHT22;1904;50.076;8.660;2022-07-12T14:40:03;32.90;1.00
3778;DHT22;1904;50.076;8.660;2022-07-12T14:42:29;33.00;1.00
3778;DHT22;1904;50.076;8.660;2022-07-12T14:44:55;33.10;1.00
3778;DHT22;1904;50.076;8.660;2022-07-12T14:47:21;33.20;1.00
3778;DHT22;1904;50.076;8.660;2022-07-12T14:49:47;33.30;1.00
3778;DHT22;1904;50.076;8.660;2022-07-12T14:52:13;33.30;1.00
3778;DHT22;1904;50.076;8.660;2022-07-12T14:54:38;33.40;1.00
3778;DHT22;1904;50.076;8.660;2022-07-12T14:57:04;33.50;1.00
3778;DHT22;1904;50.076;8.660;2022-07-12T14:59:29;33.60;1.00
3778;DHT22;1904;50.076;8.660;2022-07-12T15:01:55;33.70;1.00
3778;DHT22;1904;50.076;8.660;2022-07-12T15:04:21;33.90;1.00
3778;DHT22;1904;50.076;8.660;2022-07-12T15:06:48;33.90;1.00
3778;DHT22;1904;50.076;8.660;2022-07-12T15:09:13;34.00;1.00
3778;DHT22;1904;50.076;8.660;2022-07-12T15:11:40;34.00;1.00
3778;DHT22;1904;50.076;8.660;2022-07-12T15:14:05;34.00;1.00
3778;DHT22;1904;50.076;8.660;2022-07-12T15:16:31;34.40;1.00
3778;DHT22;1904;50.076;8.660;2022-07-12T15:18:56;35.10;1.00
3778;DHT22;1904;50.076;8.660;2022-07-12T15:21:23;36.30;1.00
3778;DHT22;1904;50.076;8.660;2022-07-12T15:23:49;37.50;1.00
3778;DHT22;1904;50.076;8.660;2022-07-12T15:26:15;39.40;1.00
3778;DHT22;1904;50.076;8.660;2022-07-12T15:28:53;41.10;1.00
3778;DHT22;1904;50.076;8.660;2022-07-12T15:31:19;42.30;1.00
3778;DHT22;1904;50.076;8.660;2022-07-12T15:33:45;43.60;1.00
3778;DHT22;1904;50.076;8.660;2022-07-12T15:36:11;43.90;1.00
3778;DHT22;1904;50.076;8.660;2022-07-12T15:38:37;44.10;1.00
3778;DHT22;1904;50.076;8.660;2022-07-12T15:41:02;44.20;1.00
3778;DHT22;1904;50.076;8.660;2022-07-12T15:43:28;44.80;1.00
3778;DHT22;1904;50.076;8.660;2022-07-12T15:45:53;45.20;1.00
3778;DHT22;1904;50.076;8.660;2022-07-12T15:48:19;45.40;1.00
3778;DHT22;1904;50.076;8.660;2022-07-12T15:50:44;45.80;1.00
3778;DHT22;1904;50.076;8.660;2022-07-12T15:53:10;46.00;1.00
3778;DHT22;1904;50.076;8.660;2022-07-12T15:56:01;46.80;1.00
3778;DHT22;1904;50.076;8.660;2022-07-12T15:58:30;47.70;1.00
3778;DHT22;1904;50.076;8.660;2022-07-12T16:00:56;48.50;1.00
3778;DHT22;1904;50.076;8.660;2022-07-12T16:03:23;49.40;1.00
3778;DHT22;1904;50.076;8.660;2022-07-12T16:05:49;49.90;1.00
3778;DHT22;1904;50.076;8.660;2022-07-12T16:08:15;50.40;1.00
3778;DHT22;1904;50.076;8.660;2022-07-12T16:10:41;51.30;1.00
3778;DHT22;1904;50.076;8.660;2022-07-12T16:13:06;51.70;1.00
3778;DHT22;1904;50.076;8.660;2022-07-12T16:15:32;52.20;1.00
3778;DHT22;1904;50.076;8.660;2022-07-12T16:17:59;52.60;1.00
3778;DHT22;1904;50.076;8.660;2022-07-12T16:20:26;53.00;1.00
3778;DHT22;1904;50.076;8.660;2022-07-12T16:22:52;52.80;1.00
3778;DHT22;1904;50.076;8.660;2022-07-12T16:25:17;52.50;1.00
3778;DHT22;1904;50.076;8.660;2022-07-12T16:27:43;52.10;1.00
3778;DHT22;1904;50.076;8.660;2022-07-12T16:30:09;51.70;1.00
3778;DHT22;1904;50.076;8.660;2022-07-12T16:32:36;51.20;1.00
3778;DHT22;1904;50.076;8.660;2022-07-12T16:35:03;50.90;1.00
3778;DHT22;1904;50.076;8.660;2022-07-12T16:37:29;50.50;1.00
3778;DHT22;1904;50.076;8.660;2022-07-12T16:39:55;50.30;1.00
3778;DHT22;1904;50.076;8.660;2022-07-12T16:42:21;50.20;1.00
3778;DHT22;1904;50.076;8.660;2022-07-12T16:44:46;50.10;1.00
3778;DHT22;1904;50.076;8.660;2022-07-12T16:47:12;49.90;1.00
3778;DHT22;1904;50.076;8.660;2022-07-12T16:49:38;49.60;1.00
3778;DHT22;1904;50.076;8.660;2022-07-12T16:52:03;49.40;1.00
3778;DHT22;1904;50.076;8.660;2022-07-12T16:54:29;49.20;1.00
3778;DHT22;1904;50.076;8.660;2022-07-12T16:56:56;49.50;1.00
3778;DHT22;1904;50.076;8.660;2022-07-12T16:59:22;50.10;1.00
3778;DHT22;1904;50.076;8.660;2022-07-12T17:01:48;50.60;1.00
3778;DHT22;1904;50.076;8.660;2022-07-12T17:04:13;51.20;1.00
3778;DHT22;1904;50.076;8.660;2022-07-12T17:06:39;51.30;1.00
3778;DHT22;1904;50.076;8.660;2022-07-12T17:09:05;51.60;1.00
3778;DHT22;1904;50.076;8.660;2022-07-12T17:11:31;51.70;1.00
3778;DHT22;1904;50.076;8.660;2022-07-12T17:13:56;51.20;1.00
3778;DHT22;1904;50.076;8.660;2022-07-12T17:16:22;50.80;1.00
3778;DHT22;1904;50.076;8.660;2022-07-12T17:18:48;50.50;1.00
3778;DHT22;1904;50.076;8.660;2022-07-12T17:21:14;50.30;1.00
3778;DHT22;1904;50.076;8.660;2022-07-12T17:23:39;49.70;1.00
3778;DHT22;1904;50.076;8.660;2022-07-12T17:26:05;49.50;1.00